createdAt,value
2023-04-16T00:01:25.320Z,8.57
2023-04-16T00:03:52.202Z,9.30
2023-04-16T00:06:19.287Z,11.10
2023-04-16T00:08:46.201Z,9.73
2023-04-16T00:11:12.998Z,8.48
2023-04-16T00:13:39.876Z,9.15
2023-04-16T00:16:07.070Z,7.82
2023-04-16T00:18:33.774Z,9.57
2023-04-16T00:21:00.912Z,10.32
2023-04-16T00:23:27.660Z,10.40
2023-04-16T00:25:57.104Z,8.98
2023-04-16T00:28:23.890Z,10.60
2023-04-16T00:30:51.266Z,8.43
2023-04-16T00:33:18.037Z,11.13
2023-04-16T00:35:48.201Z,8.73
2023-04-16T00:38:15.321Z,9.43
2023-04-16T00:40:42.071Z,10.88
2023-04-16T00:43:09.017Z,10.23
2023-04-16T00:45:36.499Z,11.15
2023-04-16T00:48:04.754Z,9.50
2023-04-16T00:50:31.715Z,11.00
2023-04-16T00:52:58.609Z,11.52
2023-04-16T00:55:26.279Z,12.98
2023-04-16T00:57:53.311Z,10.80
2023-04-16T01:00:21.321Z,11.43
2023-04-16T01:02:48.365Z,12.40
2023-04-16T01:05:15.400Z,12.82
2023-04-16T01:07:42.131Z,9.25
2023-04-16T01:10:09.049Z,13.25
2023-04-16T01:12:35.762Z,13.10
2023-04-16T01:15:02.897Z,12.82
2023-04-16T01:17:29.615Z,13.18
2023-04-16T01:20:00.278Z,12.25
2023-04-16T01:22:28.442Z,12.88
2023-04-16T01:24:55.322Z,16.75
2023-04-16T01:27:23.479Z,14.88
2023-04-16T01:29:50.407Z,14.60
2023-04-16T01:32:22.820Z,15.27
2023-04-16T01:34:49.628Z,15.10
2023-04-16T01:37:17.184Z,15.82
2023-04-16T01:39:43.867Z,13.82
2023-04-16T01:42:10.858Z,14.95
2023-04-16T01:44:37.936Z,14.80
2023-04-16T01:47:04.851Z,16.77
2023-04-16T01:49:31.809Z,14.60
2023-04-16T01:51:58.553Z,14.80
2023-04-16T01:54:26.081Z,18.13
2023-04-16T01:56:52.796Z,12.25
2023-04-16T01:59:20.234Z,15.88
2023-04-16T02:01:47.184Z,16.15
2023-04-16T02:04:14.140Z,13.15
2023-04-16T02:06:41.607Z,16.80
2023-04-16T02:09:08.598Z,13.18
2023-04-16T02:11:37.393Z,12.07
2023-04-16T02:14:04.116Z,16.25
2023-04-16T02:16:31.138Z,14.68
2023-04-16T02:19:24.361Z,17.75
2023-04-16T02:21:55.027Z,14.70
2023-04-16T02:24:21.831Z,16.65
2023-04-16T02:26:48.941Z,14.70
2023-04-16T02:29:18.231Z,17.65
2023-04-16T02:31:51.832Z,16.10
2023-04-16T02:34:19.315Z,18.40
2023-04-16T02:36:46.312Z,15.32
2023-04-16T02:39:13.017Z,16.65
2023-04-16T02:41:39.815Z,14.75
2023-04-16T02:44:06.732Z,14.82
2023-04-16T02:46:33.442Z,17.73
2023-04-16T02:49:00.601Z,15.50
2023-04-16T02:51:27.724Z,14.45
2023-04-16T02:53:54.470Z,16.95
2023-04-16T02:56:21.219Z,18.58
2023-04-16T02:58:47.953Z,14.40
2023-04-16T03:01:14.725Z,16.65
2023-04-16T03:03:41.469Z,16.60
2023-04-16T03:06:08.488Z,16.15
2023-04-16T03:08:35.434Z,16.15
2023-04-16T03:11:02.358Z,16.30
2023-04-16T03:13:29.106Z,16.45
2023-04-16T03:15:56.098Z,16.63
2023-04-16T03:18:22.896Z,14.50
2023-04-16T03:20:53.794Z,18.52
2023-04-16T03:23:20.652Z,19.98
2023-04-16T03:25:47.999Z,18.77
2023-04-16T03:28:17.714Z,15.57
2023-04-16T03:30:53.385Z,14.27
2023-04-16T03:33:20.870Z,18.35
2023-04-16T03:35:47.650Z,15.90
2023-04-16T03:38:14.682Z,16.92
2023-04-16T03:40:41.557Z,20.75
2023-04-16T03:43:09.083Z,16.05
2023-04-16T03:45:35.934Z,14.82
2023-04-16T03:48:02.718Z,15.88
2023-04-16T03:50:30.335Z,17.40
2023-04-16T03:52:57.204Z,16.65
2023-04-16T03:55:23.995Z,20.42
2023-04-16T03:57:50.760Z,17.33
2023-04-16T04:00:17.673Z,16.10
2023-04-16T04:03:11.241Z,16.25
2023-04-16T04:05:41.009Z,16.70
2023-04-16T04:08:11.691Z,16.13
2023-04-16T04:10:38.871Z,13.90
2023-04-16T04:13:07.661Z,15.00
2023-04-16T04:15:35.773Z,16.25
2023-04-16T04:18:02.611Z,21.52
2023-04-16T04:20:29.449Z,16.85
2023-04-16T04:22:56.432Z,17.00
2023-04-16T04:25:25.556Z,17.10
2023-04-16T04:27:52.436Z,17.83
2023-04-16T04:30:19.205Z,16.30
2023-04-16T04:32:46.157Z,18.98
2023-04-16T04:35:13.238Z,15.23
2023-04-16T04:37:41.564Z,17.98
2023-04-16T04:40:15.130Z,19.65
2023-04-16T04:42:42.014Z,18.38
2023-04-16T04:45:10.320Z,18.23
2023-04-16T04:47:37.212Z,17.17
2023-04-16T04:50:04.389Z,16.48
2023-04-16T04:52:32.903Z,18.75
2023-04-16T04:55:01.284Z,18.58
2023-04-16T04:57:28.062Z,15.20
2023-04-16T04:59:55.189Z,15.18
2023-04-16T05:02:22.697Z,17.55
2023-04-16T05:04:49.471Z,17.58
2023-04-16T05:07:16.523Z,17.98
2023-04-16T05:09:43.479Z,15.57
2023-04-16T05:12:10.352Z,16.35
2023-04-16T05:14:37.222Z,14.85
2023-04-16T05:17:04.172Z,15.45
2023-04-16T05:19:30.880Z,17.08
2023-04-16T05:21:57.650Z,15.82
2023-04-16T05:24:24.383Z,16.88
2023-04-16T05:26:51.258Z,13.10
2023-04-16T05:29:17.995Z,14.60
2023-04-16T05:31:44.790Z,16.65
2023-04-16T05:34:11.600Z,14.82
2023-04-16T05:36:38.310Z,17.63
2023-04-16T05:39:05.089Z,15.32
2023-04-16T05:41:31.850Z,14.57
2023-04-16T05:43:58.603Z,15.82
2023-04-16T05:46:25.854Z,12.68
2023-04-16T05:48:52.641Z,12.48
2023-04-16T05:51:20.077Z,14.00
2023-04-16T05:53:46.749Z,10.70
2023-04-16T05:56:13.383Z,14.75
2023-04-16T05:58:40.358Z,15.27
2023-04-16T06:01:07.501Z,13.90
2023-04-16T06:03:34.261Z,15.93
2023-04-16T06:06:01.042Z,14.38
2023-04-16T06:08:27.860Z,13.57
2023-04-16T06:10:54.585Z,13.10
2023-04-16T06:13:21.404Z,11.50
2023-04-16T06:15:48.289Z,11.48
2023-04-16T06:18:15.234Z,10.88
2023-04-16T06:20:41.966Z,11.68
2023-04-16T06:23:08.674Z,12.20
2023-04-16T06:25:35.530Z,12.80
2023-04-16T06:28:02.269Z,11.65
2023-04-16T06:30:29.004Z,13.20
2023-04-16T06:32:55.817Z,12.43
2023-04-16T06:35:22.609Z,13.80
2023-04-16T06:37:49.352Z,11.73
2023-04-16T06:40:16.446Z,9.30
2023-04-16T06:42:44.886Z,11.82
2023-04-16T06:45:12.722Z,11.45
2023-04-16T06:47:39.432Z,9.50
2023-04-16T06:50:06.978Z,12.57
2023-04-16T06:52:33.735Z,10.88
2023-04-16T06:55:00.575Z,10.32
2023-04-16T06:57:27.239Z,12.57
2023-04-16T06:59:54.010Z,10.45
2023-04-16T07:02:21.086Z,11.32
2023-04-16T07:04:47.877Z,10.35
2023-04-16T07:07:14.529Z,9.43
2023-04-16T07:09:41.208Z,10.43
2023-04-16T07:12:08.283Z,9.55
2023-04-16T07:14:34.987Z,10.93
2023-04-16T07:17:01.673Z,11.55
2023-04-16T07:19:32.393Z,9.82
2023-04-16T07:21:59.928Z,9.87
2023-04-16T07:24:26.783Z,12.55
2023-04-16T07:26:53.630Z,12.07
2023-04-16T07:29:20.548Z,11.27
2023-04-16T07:31:47.441Z,12.25
2023-04-16T07:34:14.192Z,9.95
2023-04-16T07:36:41.328Z,8.40
2023-04-16T07:39:08.676Z,10.80
2023-04-16T07:41:35.908Z,10.20
2023-04-16T07:44:03.390Z,12.48
2023-04-16T07:46:36.213Z,9.38
2023-04-16T07:49:12.819Z,13.50
2023-04-16T07:51:39.520Z,13.35
2023-04-16T07:54:06.246Z,11.90
2023-04-16T07:56:32.990Z,14.98
2023-04-16T07:59:07.981Z,11.55
2023-04-16T08:01:41.547Z,12.07
2023-04-16T08:04:08.460Z,13.25
2023-04-16T08:06:35.465Z,13.82
2023-04-16T08:09:02.229Z,10.82
2023-04-16T08:11:29.006Z,10.48
2023-04-16T08:13:55.788Z,10.00
2023-04-16T08:16:22.705Z,10.43
2023-04-16T08:18:49.765Z,13.93
2023-04-16T08:21:16.569Z,14.88
2023-04-16T08:23:43.530Z,12.00
2023-04-16T08:26:10.250Z,12.07
2023-04-16T08:28:37.051Z,11.80
2023-04-16T08:31:03.841Z,12.52
2023-04-16T08:33:30.585Z,11.68
2023-04-16T08:35:57.243Z,10.27
2023-04-16T08:38:23.945Z,13.82
2023-04-16T08:40:51.226Z,11.60
2023-04-16T08:43:19.841Z,12.10
2023-04-16T08:45:47.613Z,10.77
2023-04-16T08:48:15.586Z,11.77
2023-04-16T08:50:44.871Z,13.30
2023-04-16T08:53:18.550Z,11.60
2023-04-16T08:55:50.347Z,12.20
2023-04-16T08:58:22.648Z,12.35
2023-04-16T09:00:50.078Z,12.27
2023-04-16T09:03:17.134Z,11.05
2023-04-16T09:05:44.145Z,12.10
2023-04-16T09:08:11.069Z,10.75
2023-04-16T09:10:37.779Z,10.65
2023-04-16T09:13:04.748Z,10.27
2023-04-16T09:15:35.049Z,12.45
2023-04-16T09:18:03.127Z,13.40
2023-04-16T09:20:30.211Z,11.05
2023-04-16T09:22:57.128Z,11.32
2023-04-16T09:25:25.569Z,9.40
2023-04-16T09:27:52.583Z,14.55
2023-04-16T09:30:21.881Z,11.73
2023-04-16T09:32:49.521Z,11.20
2023-04-16T09:35:18.638Z,9.68
2023-04-16T09:37:55.834Z,10.88
2023-04-16T09:40:27.515Z,11.05
2023-04-16T09:42:58.121Z,12.27
2023-04-16T09:45:24.864Z,11.80
2023-04-16T09:47:51.684Z,10.70
2023-04-16T09:50:19.981Z,11.48
2023-04-16T09:52:51.203Z,10.48
2023-04-16T09:55:23.894Z,15.25
2023-04-16T09:57:59.482Z,11.48
2023-04-16T10:00:26.323Z,9.93
2023-04-16T10:03:04.660Z,10.05
2023-04-16T10:05:31.507Z,10.88
2023-04-16T10:08:02.059Z,12.90
2023-04-16T10:10:29.463Z,8.93
2023-04-16T10:12:56.381Z,11.55
2023-04-16T10:15:23.491Z,9.90
2023-04-16T10:17:51.593Z,8.80
2023-04-16T10:20:18.845Z,9.68
2023-04-16T10:22:46.058Z,9.10
2023-04-16T10:25:13.367Z,12.25
2023-04-16T10:27:40.874Z,12.13
2023-04-16T10:30:09.283Z,8.88
2023-04-16T10:32:37.914Z,10.00
2023-04-16T10:35:05.314Z,12.10
2023-04-16T10:37:32.608Z,10.40
2023-04-16T10:40:00.051Z,11.40
2023-04-16T10:42:27.514Z,13.75
2023-04-16T10:44:54.456Z,13.88
2023-04-16T10:47:26.046Z,12.45
2023-04-16T10:49:52.956Z,11.02
2023-04-16T10:52:20.156Z,11.13
2023-04-16T10:54:50.535Z,11.43
2023-04-16T10:57:19.685Z,12.05
2023-04-16T10:59:48.424Z,12.95
2023-04-16T11:02:19.220Z,14.68
2023-04-16T11:04:48.322Z,12.52
2023-04-16T11:07:21.492Z,11.40
2023-04-16T11:10:06.443Z,12.02
2023-04-16T11:12:34.415Z,17.98
2023-04-16T11:15:08.824Z,14.32
2023-04-16T11:17:42.949Z,15.82
2023-04-16T11:20:20.951Z,12.73
2023-04-16T11:22:55.978Z,15.68
2023-04-16T11:25:24.422Z,14.43
2023-04-16T11:27:52.370Z,14.98
2023-04-16T11:30:28.435Z,13.30
2023-04-16T11:32:55.669Z,14.30
2023-04-16T11:35:22.593Z,13.10
2023-04-16T11:37:49.371Z,13.45
2023-04-16T11:40:16.128Z,15.40
2023-04-16T11:42:44.314Z,14.82
2023-04-16T11:45:12.308Z,16.35
2023-04-16T11:47:51.791Z,16.33
2023-04-16T11:50:26.331Z,12.45
2023-04-16T11:52:54.965Z,15.93
2023-04-16T11:55:22.675Z,14.20
2023-04-16T11:57:50.023Z,15.98
2023-04-16T12:00:19.026Z,15.95
2023-04-16T12:02:52.069Z,15.00
2023-04-16T12:05:35.322Z,14.95
2023-04-16T12:08:04.740Z,15.13
2023-04-16T12:10:36.738Z,14.00
2023-04-16T12:13:14.636Z,15.32
2023-04-16T12:15:55.972Z,13.52
2023-04-16T12:18:26.080Z,13.82
2023-04-16T12:20:53.008Z,16.50
2023-04-16T12:23:31.126Z,14.48
2023-04-16T12:26:02.534Z,14.75
2023-04-16T12:28:35.563Z,16.77
2023-04-16T12:31:03.380Z,15.38
2023-04-16T12:33:33.016Z,13.45
2023-04-16T12:35:59.907Z,12.68
2023-04-16T12:38:27.635Z,15.98
2023-04-16T12:40:56.938Z,13.05
2023-04-16T12:43:24.882Z,15.10
2023-04-16T12:45:51.657Z,15.13
2023-04-16T12:48:18.446Z,13.88
2023-04-16T12:50:46.023Z,16.48
2023-04-16T12:53:12.803Z,12.65
2023-04-16T12:55:39.525Z,18.52
2023-04-16T12:58:06.805Z,17.10
2023-04-16T13:00:33.531Z,15.75
2023-04-16T13:03:00.558Z,16.95
2023-04-16T13:05:27.781Z,15.55
2023-04-16T13:07:54.513Z,14.65
2023-04-16T13:10:22.036Z,12.95
2023-04-16T13:12:49.194Z,13.35
2023-04-16T13:15:16.154Z,17.55
2023-04-16T13:17:42.906Z,15.52
2023-04-16T13:20:10.623Z,15.10
2023-04-16T13:22:37.613Z,15.63
2023-04-16T13:25:05.065Z,13.93
2023-04-16T13:27:32.560Z,14.80
2023-04-16T13:29:59.520Z,14.70
2023-04-16T13:32:26.464Z,13.02
2023-04-16T13:34:53.226Z,18.08
2023-04-16T13:37:19.975Z,16.17
2023-04-16T13:39:47.316Z,13.43
2023-04-16T13:42:14.146Z,17.40
2023-04-16T13:44:41.052Z,13.07
2023-04-16T13:47:08.071Z,15.32
2023-04-16T13:49:36.141Z,17.98
2023-04-16T13:52:03.551Z,15.60
2023-04-16T13:54:30.386Z,15.23
2023-04-16T13:56:57.164Z,16.65
2023-04-16T13:59:23.951Z,16.58
2023-04-16T14:01:51.282Z,18.33
2023-04-16T14:04:18.232Z,15.63
2023-04-16T14:06:45.201Z,16.80
2023-04-16T14:09:12.065Z,13.93
2023-04-16T14:11:38.924Z,16.23
2023-04-16T14:14:05.677Z,17.75
2023-04-16T14:16:35.591Z,17.30
2023-04-16T14:19:02.416Z,17.67
2023-04-16T14:21:29.354Z,16.95
2023-04-16T14:23:56.146Z,17.27
2023-04-16T14:26:23.495Z,14.90
2023-04-16T14:28:51.148Z,21.42
2023-04-16T14:31:18.149Z,15.40
2023-04-16T14:33:45.066Z,20.05
2023-04-16T14:36:11.907Z,16.45
2023-04-16T14:38:38.688Z,14.85
2023-04-16T14:41:05.472Z,15.98
2023-04-16T14:43:32.242Z,17.23
2023-04-16T14:46:00.005Z,16.42
2023-04-16T14:48:26.848Z,17.15
2023-04-16T14:50:53.902Z,17.35
2023-04-16T14:53:20.861Z,17.27
2023-04-16T14:55:47.704Z,16.35
2023-04-16T14:58:14.434Z,16.42
2023-04-16T15:00:41.381Z,15.20
2023-04-16T15:03:08.223Z,18.70
2023-04-16T15:05:35.841Z,19.33
2023-04-16T15:08:02.667Z,18.73
2023-04-16T15:10:29.878Z,19.80
2023-04-16T15:12:56.626Z,15.80
2023-04-16T15:15:23.361Z,16.48
2023-04-16T15:17:51.064Z,18.83
2023-04-16T15:20:18.045Z,19.23
2023-04-16T15:22:44.812Z,23.17
2023-04-16T15:25:11.599Z,17.30
2023-04-16T15:27:38.396Z,16.25
2023-04-16T15:30:06.476Z,19.33
2023-04-16T15:32:33.278Z,20.60
2023-04-16T15:35:02.264Z,16.98
2023-04-16T15:37:29.007Z,16.85
2023-04-16T15:39:55.774Z,19.45
2023-04-16T15:42:23.535Z,16.92
2023-04-16T15:44:50.665Z,20.40
2023-04-16T15:47:17.361Z,20.70
2023-04-16T15:49:44.120Z,20.90
2023-04-16T15:52:14.241Z,19.65
2023-04-16T15:54:41.034Z,20.95
2023-04-16T15:57:07.896Z,21.25
2023-04-16T15:59:34.831Z,18.55
2023-04-16T16:02:01.846Z,20.65
2023-04-16T16:04:28.934Z,19.10
2023-04-16T16:06:56.694Z,16.30
2023-04-16T16:09:26.837Z,19.50
2023-04-16T16:11:54.518Z,18.42
2023-04-16T16:14:22.242Z,16.15
2023-04-16T16:16:49.456Z,14.77
2023-04-16T16:19:16.671Z,19.23
2023-04-16T16:21:44.398Z,18.55
2023-04-16T16:24:11.115Z,21.75
2023-04-16T16:26:37.958Z,17.75
2023-04-16T16:29:05.739Z,13.95
2023-04-16T16:31:32.802Z,18.65
2023-04-16T16:33:59.679Z,17.23
2023-04-16T16:36:27.592Z,15.38
2023-04-16T16:38:55.194Z,15.82
2023-04-16T16:41:22.467Z,20.00
2023-04-16T16:43:50.265Z,16.35
2023-04-16T16:46:16.995Z,17.00
2023-04-16T16:48:43.734Z,19.63
2023-04-16T16:51:11.085Z,19.85
2023-04-16T16:53:37.861Z,18.83
2023-04-16T16:56:04.772Z,16.73
2023-04-16T16:58:31.591Z,14.13
2023-04-16T17:00:58.689Z,17.75
2023-04-16T17:03:25.752Z,15.98
2023-04-16T17:05:52.584Z,14.90
2023-04-16T17:08:19.281Z,14.93
2023-04-16T17:10:46.077Z,14.82
2023-04-16T17:13:15.047Z,17.30
2023-04-16T17:15:42.003Z,14.63
2023-04-16T17:18:08.718Z,15.35
2023-04-16T17:20:35.510Z,13.95
2023-04-16T17:23:02.385Z,14.55
2023-04-16T17:25:29.296Z,15.93
2023-04-16T17:27:56.065Z,14.75
2023-04-16T17:30:27.363Z,17.85
2023-04-16T17:32:54.284Z,14.32
2023-04-16T17:35:21.260Z,16.95
2023-04-16T17:37:48.032Z,12.07
2023-04-16T17:40:18.045Z,15.50
2023-04-16T17:42:45.456Z,12.80
2023-04-16T17:45:12.675Z,12.52
2023-04-16T17:47:39.513Z,13.82
2023-04-16T17:50:07.356Z,14.63
2023-04-16T17:52:34.120Z,13.27
2023-04-16T17:55:01.526Z,13.18
2023-04-16T17:57:30.229Z,11.63
2023-04-16T17:59:57.038Z,12.65
2023-04-16T18:02:24.304Z,14.07
2023-04-16T18:04:51.574Z,12.73
2023-04-16T18:07:18.412Z,13.02
2023-04-16T18:09:45.226Z,15.18
2023-04-16T18:12:12.058Z,14.23
2023-04-16T18:14:40.615Z,17.27
2023-04-16T18:17:07.390Z,17.02
2023-04-16T18:19:35.426Z,14.23
2023-04-16T18:22:02.404Z,16.00
2023-04-16T18:24:29.203Z,13.85
2023-04-16T18:26:56.695Z,15.02
2023-04-16T18:29:25.227Z,15.50
2023-04-16T18:31:52.466Z,12.63
2023-04-16T18:34:19.399Z,12.95
2023-04-16T18:36:46.232Z,14.93
2023-04-16T18:39:13.363Z,12.00
2023-04-16T18:41:41.606Z,14.13
2023-04-16T18:44:10.712Z,14.48
2023-04-16T18:46:37.541Z,14.75
2023-04-16T18:49:04.293Z,12.85
2023-04-16T18:51:30.993Z,12.63
2023-04-16T18:53:57.790Z,14.13
2023-04-16T18:56:24.691Z,16.70
2023-04-16T18:58:51.486Z,17.63
2023-04-16T19:01:18.306Z,16.60
2023-04-16T19:03:45.477Z,16.23
2023-04-16T19:06:12.345Z,13.77
2023-04-16T19:08:39.116Z,18.00
2023-04-16T19:11:05.882Z,15.18
2023-04-16T19:13:32.540Z,17.02
2023-04-16T19:16:00.583Z,15.25
2023-04-16T19:18:27.460Z,16.17
2023-04-16T19:21:01.142Z,16.90
2023-04-16T19:23:28.992Z,16.73
2023-04-16T19:25:56.951Z,16.35
2023-04-16T19:28:24.664Z,16.63
2023-04-16T19:30:52.635Z,15.95
2023-04-16T19:33:19.745Z,17.40
2023-04-16T19:35:47.209Z,16.35
2023-04-16T19:38:14.053Z,15.38
2023-04-16T19:40:43.244Z,21.33
2023-04-16T19:43:09.948Z,18.75
2023-04-16T19:45:42.149Z,16.52
2023-04-16T19:48:08.983Z,18.02
2023-04-16T19:50:38.424Z,16.10
2023-04-16T19:53:05.400Z,16.50
2023-04-16T19:55:32.253Z,15.15
2023-04-16T19:58:05.517Z,15.25
2023-04-16T20:00:33.892Z,14.40
2023-04-16T20:03:00.905Z,18.35
2023-04-16T20:05:28.556Z,16.33
2023-04-16T20:07:55.813Z,16.13
2023-04-16T20:10:23.284Z,14.65
2023-04-16T20:12:51.273Z,18.00
2023-04-16T20:15:18.897Z,15.63
2023-04-16T20:17:45.818Z,16.40
2023-04-16T20:20:15.613Z,17.77
2023-04-16T20:22:43.098Z,18.20
2023-04-16T20:25:10.320Z,17.90
2023-04-16T20:27:37.134Z,18.63
2023-04-16T20:30:05.704Z,16.17
2023-04-16T20:32:32.469Z,19.20
2023-04-16T20:34:59.892Z,14.27
2023-04-16T20:37:28.675Z,15.52
2023-04-16T20:39:56.015Z,14.95
2023-04-16T20:42:23.293Z,17.02
2023-04-16T20:44:56.141Z,19.48
2023-04-16T20:47:23.350Z,15.10
2023-04-16T20:49:50.500Z,17.17
2023-04-16T20:52:17.306Z,17.73
2023-04-16T20:54:44.398Z,16.73
2023-04-16T20:57:11.116Z,16.73
2023-04-16T20:59:37.966Z,12.60
2023-04-16T21:02:04.846Z,14.50
2023-04-16T21:04:31.900Z,16.67
2023-04-16T21:06:58.739Z,13.98
2023-04-16T21:09:25.582Z,15.25
2023-04-16T21:11:52.325Z,15.85
2023-04-16T21:14:19.138Z,15.50
2023-04-16T21:16:45.861Z,18.20
2023-04-16T21:19:12.662Z,15.93
2023-04-16T21:21:39.703Z,13.80
2023-04-16T21:24:06.928Z,16.35
2023-04-16T21:26:33.671Z,18.33
2023-04-16T21:29:00.571Z,17.25
2023-04-16T21:31:27.485Z,16.80
2023-04-16T21:33:54.347Z,18.05
2023-04-16T21:36:21.317Z,18.13
2023-04-16T21:38:48.026Z,16.48
2023-04-16T21:41:14.766Z,20.27
2023-04-16T21:43:41.490Z,17.05
2023-04-16T21:46:08.201Z,20.17
2023-04-16T21:48:34.944Z,20.33
2023-04-16T21:51:06.284Z,23.08
2023-04-16T21:53:33.923Z,22.60
2023-04-16T21:56:00.889Z,16.85
2023-04-16T21:58:27.759Z,22.23
2023-04-16T22:00:54.547Z,20.23
2023-04-16T22:03:28.475Z,17.98
2023-04-16T22:06:00.872Z,18.85
2023-04-16T22:08:28.958Z,20.35
2023-04-16T22:10:59.674Z,18.27
2023-04-16T22:13:26.856Z,21.50
2023-04-16T22:15:54.748Z,18.83
2023-04-16T22:18:24.180Z,17.23
2023-04-16T22:20:56.073Z,16.55
2023-04-16T22:23:23.624Z,18.40
2023-04-16T22:25:52.483Z,18.88
2023-04-16T22:28:19.280Z,16.98
2023-04-16T22:30:46.008Z,18.90
2023-04-16T22:33:12.791Z,17.23
2023-04-16T22:35:39.606Z,16.92
2023-04-16T22:38:07.593Z,20.70
2023-04-16T22:40:34.395Z,19.88
2023-04-16T22:43:01.233Z,19.65
2023-04-16T22:45:28.370Z,18.13
2023-04-16T22:47:55.118Z,16.52
2023-04-16T22:50:23.094Z,20.38
2023-04-16T22:52:49.776Z,19.80
2023-04-16T22:55:16.738Z,18.00
2023-04-16T22:57:43.445Z,17.88
2023-04-16T23:00:17.504Z,19.25
2023-04-16T23:02:45.047Z,15.85
2023-04-16T23:05:12.220Z,16.23
2023-04-16T23:07:39.128Z,15.65
2023-04-16T23:10:08.172Z,17.42
2023-04-16T23:12:37.222Z,15.98
2023-04-16T23:15:06.335Z,19.70
2023-04-16T23:17:33.870Z,15.30
2023-04-16T23:20:00.990Z,15.57
2023-04-16T23:22:27.891Z,13.80
2023-04-16T23:24:54.682Z,18.85
2023-04-16T23:27:21.412Z,17.20
2023-04-16T23:29:48.068Z,17.33
2023-04-16T23:32:14.774Z,16.77
2023-04-16T23:34:41.996Z,14.27
2023-04-16T23:37:08.833Z,14.60
2023-04-16T23:39:35.818Z,15.63
2023-04-16T23:42:03.063Z,15.18
2023-04-16T23:44:29.849Z,17.17
2023-04-16T23:46:57.292Z,18.13
2023-04-16T23:49:24.115Z,16.58
2023-04-16T23:51:50.830Z,16.65
2023-04-16T23:54:17.682Z,15.40
2023-04-16T23:56:44.355Z,15.40
2023-04-16T23:59:11.485Z,14.90
